sensor_id;sensor_type;location;lat;lon;timestamp;P1;durP1;ratioP1;P2;durP2;ratioP2
1400;SDS011;46518;48.842;8.926;2023-03-03T00:01:15;40.25;;;25.52;;
1400;SDS011;46518;48.842;8.926;2023-03-03T00:03:45;42.25;;;25.33;;
1400;SDS011;46518;48.842;8.926;2023-03-03T00:06:13;41.83;;;24.55;;
1400;SDS011;46518;48.842;8.926;2023-03-03T00:08:41;43.28;;;26.77;;
1400;SDS011;46518;48.842;8.926;2023-03-03T00:11:09;39.13;;;25.38;;
1400;SDS011;46518;48.842;8.926;2023-03-03T00:13:40;39.05;;;26.45;;
1400;SDS011;46518;48.842;8.926;2023-03-03T00:16:14;38.08;;;24.92;;
1400;SDS011;46518;48.842;8.926;2023-03-03T00:18:45;43.63;;;26.63;;
1400;SDS011;46518;48.842;8.926;2023-03-03T00:21:24;40.53;;;25.60;;
1400;SDS011;46518;48.842;8.926;2023-03-03T00:23:58;36.63;;;23.70;;
1400;SDS011;46518;48.842;8.926;2023-03-03T00:26:41;45.10;;;27.00;;
1400;SDS011;46518;48.842;8.926;2023-03-03T00:29:26;36.92;;;24.17;;
1400;SDS011;46518;48.842;8.926;2023-03-03T00:31:59;42.90;;;25.20;;
1400;SDS011;46518;48.842;8.926;2023-03-03T00:34:44;35.17;;;23.77;;
1400;SDS011;46518;48.842;8.926;2023-03-03T00:40:12;39.17;;;26.98;;
1400;SDS011;46518;48.842;8.926;2023-03-03T00:42:48;45.92;;;29.13;;
1400;SDS011;46518;48.842;8.926;2023-03-03T00:45:28;40.58;;;25.23;;
1400;SDS011;46518;48.842;8.926;2023-03-03T00:47:58;47.38;;;27.35;;
1400;SDS011;46518;48.842;8.926;2023-03-03T00:50:37;44.85;;;27.98;;
1400;SDS011;46518;48.842;8.926;2023-03-03T00:53:09;45.47;;;27.58;;
1400;SDS011;46518;48.842;8.926;2023-03-03T00:55:39;41.38;;;27.40;;
1400;SDS011;46518;48.842;8.926;2023-03-03T00:58:07;40.38;;;26.85;;
1400;SDS011;46518;48.842;8.926;2023-03-03T01:00:40;47.67;;;28.80;;
1400;SDS011;46518;48.842;8.926;2023-03-03T01:03:12;49.67;;;29.42;;
1400;SDS011;46518;48.842;8.926;2023-03-03T01:05:43;43.70;;;28.40;;
1400;SDS011;46518;48.842;8.926;2023-03-03T01:08:11;45.53;;;26.83;;
1400;SDS011;46518;48.842;8.926;2023-03-03T01:10:41;47.30;;;27.05;;
1400;SDS011;46518;48.842;8.926;2023-03-03T01:13:11;41.17;;;24.88;;
1400;SDS011;46518;48.842;8.926;2023-03-03T01:15:39;40.95;;;23.77;;
1400;SDS011;46518;48.842;8.926;2023-03-03T01:18:08;50.97;;;25.77;;
1400;SDS011;46518;48.842;8.926;2023-03-03T01:20:37;50.28;;;28.98;;
1400;SDS011;46518;48.842;8.926;2023-03-03T01:23:06;42.92;;;27.42;;
1400;SDS011;46518;48.842;8.926;2023-03-03T01:25:35;41.95;;;27.95;;
1400;SDS011;46518;48.842;8.926;2023-03-03T01:28:04;50.65;;;30.85;;
1400;SDS011;46518;48.842;8.926;2023-03-03T01:30:32;47.17;;;28.42;;
1400;SDS011;46518;48.842;8.926;2023-03-03T01:33:00;49.33;;;28.70;;
1400;SDS011;46518;48.842;8.926;2023-03-03T01:35:28;53.95;;;31.77;;
1400;SDS011;46518;48.842;8.926;2023-03-03T01:37:57;49.15;;;29.83;;
1400;SDS011;46518;48.842;8.926;2023-03-03T01:40:27;43.78;;;27.27;;
1400;SDS011;46518;48.842;8.926;2023-03-03T01:42:57;43.55;;;27.08;;
1400;SDS011;46518;48.842;8.926;2023-03-03T01:45:26;45.63;;;27.67;;
1400;SDS011;46518;48.842;8.926;2023-03-03T01:47:58;41.28;;;25.20;;
1400;SDS011;46518;48.842;8.926;2023-03-03T01:50:36;50.47;;;29.33;;
1400;SDS011;46518;48.842;8.926;2023-03-03T01:53:10;44.85;;;26.42;;
1400;SDS011;46518;48.842;8.926;2023-03-03T01:55:43;49.45;;;28.45;;
1400;SDS011;46518;48.842;8.926;2023-03-03T01:58:13;51.70;;;29.75;;
1400;SDS011;46518;48.842;8.926;2023-03-03T02:00:45;44.95;;;26.65;;
1400;SDS011;46518;48.842;8.926;2023-03-03T02:03:17;47.10;;;29.15;;
1400;SDS011;46518;48.842;8.926;2023-03-03T02:05:47;52.53;;;30.77;;
1400;SDS011;46518;48.842;8.926;2023-03-03T02:08:18;51.25;;;29.33;;
1400;SDS011;46518;48.842;8.926;2023-03-03T02:10:50;53.50;;;29.90;;
1400;SDS011;46518;48.842;8.926;2023-03-03T02:13:20;54.17;;;30.90;;
1400;SDS011;46518;48.842;8.926;2023-03-03T02:15:48;49.75;;;28.02;;
1400;SDS011;46518;48.842;8.926;2023-03-03T02:18:18;46.17;;;29.45;;
1400;SDS011;46518;48.842;8.926;2023-03-03T02:20:51;48.55;;;27.88;;
1400;SDS011;46518;48.842;8.926;2023-03-03T02:23:25;50.53;;;30.15;;
1400;SDS011;46518;48.842;8.926;2023-03-03T02:26:05;50.03;;;27.83;;
1400;SDS011;46518;48.842;8.926;2023-03-03T02:28:36;50.35;;;29.95;;
1400;SDS011;46518;48.842;8.926;2023-03-03T02:31:08;52.67;;;29.13;;
1400;SDS011;46518;48.842;8.926;2023-03-03T02:33:40;55.10;;;30.48;;
1400;SDS011;46518;48.842;8.926;2023-03-03T02:36:10;45.35;;;28.35;;
1400;SDS011;46518;48.842;8.926;2023-03-03T02:38:41;63.55;;;31.67;;
1400;SDS011;46518;48.842;8.926;2023-03-03T02:41:17;49.83;;;29.02;;
1400;SDS011;46518;48.842;8.926;2023-03-03T02:43:56;50.13;;;26.67;;
1400;SDS011;46518;48.842;8.926;2023-03-03T02:46:27;47.92;;;27.70;;
1400;SDS011;46518;48.842;8.926;2023-03-03T02:49:00;44.80;;;27.80;;
1400;SDS011;46518;48.842;8.926;2023-03-03T02:51:28;46.25;;;26.67;;
1400;SDS011;46518;48.842;8.926;2023-03-03T02:53:56;51.47;;;28.20;;
1400;SDS011;46518;48.842;8.926;2023-03-03T02:56:28;38.10;;;26.25;;
1400;SDS011;46518;48.842;8.926;2023-03-03T02:58:57;45.67;;;27.98;;
1400;SDS011;46518;48.842;8.926;2023-03-03T03:01:26;44.92;;;28.60;;
1400;SDS011;46518;48.842;8.926;2023-03-03T03:03:55;49.88;;;27.25;;
1400;SDS011;46518;48.842;8.926;2023-03-03T03:06:23;44.95;;;28.80;;
1400;SDS011;46518;48.842;8.926;2023-03-03T03:08:51;46.30;;;28.70;;
1400;SDS011;46518;48.842;8.926;2023-03-03T03:11:19;40.90;;;25.85;;
1400;SDS011;46518;48.842;8.926;2023-03-03T03:13:49;42.20;;;26.75;;
1400;SDS011;46518;48.842;8.926;2023-03-03T03:16:17;42.30;;;26.00;;
1400;SDS011;46518;48.842;8.926;2023-03-03T03:18:46;46.40;;;27.08;;
1400;SDS011;46518;48.842;8.926;2023-03-03T03:21:16;43.47;;;26.00;;
1400;SDS011;46518;48.842;8.926;2023-03-03T03:23:45;50.33;;;27.77;;
1400;SDS011;46518;48.842;8.926;2023-03-03T03:26:13;55.10;;;28.88;;
1400;SDS011;46518;48.842;8.926;2023-03-03T03:28:42;45.65;;;27.85;;
1400;SDS011;46518;48.842;8.926;2023-03-03T03:31:12;45.95;;;28.92;;
1400;SDS011;46518;48.842;8.926;2023-03-03T03:33:41;52.85;;;29.00;;
1400;SDS011;46518;48.842;8.926;2023-03-03T03:36:10;41.55;;;27.33;;
1400;SDS011;46518;48.842;8.926;2023-03-03T03:38:39;45.42;;;27.33;;
1400;SDS011;46518;48.842;8.926;2023-03-03T03:41:09;45.13;;;28.55;;
1400;SDS011;46518;48.842;8.926;2023-03-03T03:43:39;46.47;;;26.17;;
1400;SDS011;46518;48.842;8.926;2023-03-03T03:46:07;51.85;;;28.83;;
1400;SDS011;46518;48.842;8.926;2023-03-03T03:48:38;41.22;;;25.60;;
1400;SDS011;46518;48.842;8.926;2023-03-03T03:51:09;49.90;;;29.40;;
1400;SDS011;46518;48.842;8.926;2023-03-03T03:53:38;54.55;;;31.05;;
1400;SDS011;46518;48.842;8.926;2023-03-03T03:56:07;56.00;;;31.63;;
1400;SDS011;46518;48.842;8.926;2023-03-03T03:58:35;63.20;;;32.50;;
1400;SDS011;46518;48.842;8.926;2023-03-03T04:01:07;62.95;;;35.22;;
1400;SDS011;46518;48.842;8.926;2023-03-03T04:03:42;61.67;;;34.58;;
1400;SDS011;46518;48.842;8.926;2023-03-03T04:06:14;58.33;;;31.98;;
1400;SDS011;46518;48.842;8.926;2023-03-03T04:08:42;52.83;;;33.25;;
1400;SDS011;46518;48.842;8.926;2023-03-03T04:11:10;56.60;;;30.60;;
1400;SDS011;46518;48.842;8.926;2023-03-03T04:13:38;57.13;;;31.35;;
1400;SDS011;46518;48.842;8.926;2023-03-03T04:16:08;61.80;;;33.00;;
1400;SDS011;46518;48.842;8.926;2023-03-03T04:18:38;63.78;;;35.15;;
1400;SDS011;46518;48.842;8.926;2023-03-03T04:21:14;67.40;;;33.90;;
1400;SDS011;46518;48.842;8.926;2023-03-03T04:23:44;56.78;;;31.77;;
1400;SDS011;46518;48.842;8.926;2023-03-03T04:26:12;56.13;;;32.78;;
1400;SDS011;46518;48.842;8.926;2023-03-03T04:28:42;57.17;;;31.00;;
1400;SDS011;46518;48.842;8.926;2023-03-03T04:31:10;53.88;;;29.83;;
1400;SDS011;46518;48.842;8.926;2023-03-03T04:33:39;56.03;;;30.70;;
1400;SDS011;46518;48.842;8.926;2023-03-03T04:36:09;48.65;;;28.90;;
1400;SDS011;46518;48.842;8.926;2023-03-03T04:38:38;65.22;;;32.95;;
1400;SDS011;46518;48.842;8.926;2023-03-03T04:41:07;60.50;;;32.05;;
1400;SDS011;46518;48.842;8.926;2023-03-03T04:43:37;53.45;;;31.08;;
1400;SDS011;46518;48.842;8.926;2023-03-03T04:46:05;57.67;;;30.98;;
1400;SDS011;46518;48.842;8.926;2023-03-03T04:48:35;52.25;;;29.75;;
1400;SDS011;46518;48.842;8.926;2023-03-03T04:51:04;57.95;;;30.83;;
1400;SDS011;46518;48.842;8.926;2023-03-03T04:53:34;45.85;;;27.95;;
1400;SDS011;46518;48.842;8.926;2023-03-03T04:56:06;49.30;;;27.77;;
1400;SDS011;46518;48.842;8.926;2023-03-03T04:58:35;48.35;;;27.88;;
1400;SDS011;46518;48.842;8.926;2023-03-03T05:01:03;52.58;;;28.05;;
1400;SDS011;46518;48.842;8.926;2023-03-03T05:03:32;51.15;;;28.85;;
1400;SDS011;46518;48.842;8.926;2023-03-03T05:06:01;48.83;;;28.63;;
1400;SDS011;46518;48.842;8.926;2023-03-03T05:08:29;52.45;;;30.08;;
1400;SDS011;46518;48.842;8.926;2023-03-03T05:10:57;46.20;;;29.27;;
1400;SDS011;46518;48.842;8.926;2023-03-03T05:13:28;51.95;;;27.85;;
1400;SDS011;46518;48.842;8.926;2023-03-03T05:15:57;50.35;;;28.20;;
1400;SDS011;46518;48.842;8.926;2023-03-03T05:18:25;49.55;;;29.52;;
1400;SDS011;46518;48.842;8.926;2023-03-03T05:20:54;58.10;;;30.48;;
1400;SDS011;46518;48.842;8.926;2023-03-03T05:23:22;49.33;;;28.50;;
1400;SDS011;46518;48.842;8.926;2023-03-03T05:25:51;51.20;;;30.13;;
1400;SDS011;46518;48.842;8.926;2023-03-03T05:28:19;53.17;;;28.85;;
1400;SDS011;46518;48.842;8.926;2023-03-03T05:30:48;51.55;;;30.08;;
1400;SDS011;46518;48.842;8.926;2023-03-03T05:33:16;52.50;;;30.80;;
1400;SDS011;46518;48.842;8.926;2023-03-03T05:35:45;52.28;;;31.45;;
1400;SDS011;46518;48.842;8.926;2023-03-03T05:38:13;49.88;;;30.17;;
1400;SDS011;46518;48.842;8.926;2023-03-03T05:40:42;49.47;;;29.45;;
1400;SDS011;46518;48.842;8.926;2023-03-03T05:43:10;45.50;;;29.33;;
1400;SDS011;46518;48.842;8.926;2023-03-03T05:45:39;51.60;;;28.08;;
1400;SDS011;46518;48.842;8.926;2023-03-03T05:48:08;51.85;;;29.30;;
1400;SDS011;46518;48.842;8.926;2023-03-03T05:50:37;48.72;;;30.02;;
1400;SDS011;46518;48.842;8.926;2023-03-03T05:53:05;50.45;;;29.95;;
1400;SDS011;46518;48.842;8.926;2023-03-03T05:55:34;54.90;;;29.55;;
1400;SDS011;46518;48.842;8.926;2023-03-03T05:58:02;53.63;;;28.70;;
1400;SDS011;46518;48.842;8.926;2023-03-03T06:00:30;52.53;;;29.33;;
1400;SDS011;46518;48.842;8.926;2023-03-03T06:02:58;44.78;;;26.20;;
1400;SDS011;46518;48.842;8.926;2023-03-03T06:05:28;56.08;;;30.08;;
1400;SDS011;46518;48.842;8.926;2023-03-03T06:07:56;52.00;;;31.27;;
1400;SDS011;46518;48.842;8.926;2023-03-03T06:10:25;53.42;;;29.70;;
1400;SDS011;46518;48.842;8.926;2023-03-03T06:12:56;55.30;;;29.20;;
1400;SDS011;46518;48.842;8.926;2023-03-03T06:15:25;43.83;;;27.10;;
1400;SDS011;46518;48.842;8.926;2023-03-03T06:17:53;54.53;;;29.92;;
1400;SDS011;46518;48.842;8.926;2023-03-03T06:20:22;56.92;;;30.45;;
1400;SDS011;46518;48.842;8.926;2023-03-03T06:22:51;52.33;;;30.23;;
1400;SDS011;46518;48.842;8.926;2023-03-03T06:25:20;47.78;;;31.02;;
1400;SDS011;46518;48.842;8.926;2023-03-03T06:27:48;53.05;;;30.38;;
1400;SDS011;46518;48.842;8.926;2023-03-03T06:30:16;59.60;;;32.15;;
1400;SDS011;46518;48.842;8.926;2023-03-03T06:32:45;49.38;;;27.55;;
1400;SDS011;46518;48.842;8.926;2023-03-03T06:35:13;54.63;;;31.77;;
1400;SDS011;46518;48.842;8.926;2023-03-03T06:37:42;57.78;;;33.13;;
1400;SDS011;46518;48.842;8.926;2023-03-03T06:40:12;51.70;;;33.40;;
1400;SDS011;46518;48.842;8.926;2023-03-03T06:42:40;54.55;;;31.13;;
1400;SDS011;46518;48.842;8.926;2023-03-03T06:45:09;54.72;;;30.90;;
1400;SDS011;46518;48.842;8.926;2023-03-03T06:47:38;53.17;;;31.13;;
1400;SDS011;46518;48.842;8.926;2023-03-03T06:50:07;45.63;;;29.02;;
1400;SDS011;46518;48.842;8.926;2023-03-03T06:52:38;55.83;;;31.85;;
1400;SDS011;46518;48.842;8.926;2023-03-03T06:55:11;54.92;;;29.92;;
1400;SDS011;46518;48.842;8.926;2023-03-03T06:57:48;47.20;;;28.58;;
1400;SDS011;46518;48.842;8.926;2023-03-03T07:00:17;53.20;;;30.02;;
1400;SDS011;46518;48.842;8.926;2023-03-03T07:02:51;49.95;;;29.65;;
1400;SDS011;46518;48.842;8.926;2023-03-03T07:05:25;50.33;;;30.10;;
1400;SDS011;46518;48.842;8.926;2023-03-03T07:07:54;52.78;;;31.38;;
1400;SDS011;46518;48.842;8.926;2023-03-03T07:10:25;49.13;;;30.60;;
1400;SDS011;46518;48.842;8.926;2023-03-03T07:12:55;58.60;;;30.73;;
1400;SDS011;46518;48.842;8.926;2023-03-03T07:15:29;46.47;;;27.85;;
1400;SDS011;46518;48.842;8.926;2023-03-03T07:18:01;55.58;;;30.85;;
1400;SDS011;46518;48.842;8.926;2023-03-03T07:20:31;46.47;;;29.63;;
1400;SDS011;46518;48.842;8.926;2023-03-03T07:23:04;47.63;;;28.55;;
1400;SDS011;46518;48.842;8.926;2023-03-03T07:25:46;49.40;;;28.08;;
1400;SDS011;46518;48.842;8.926;2023-03-03T07:28:16;52.80;;;30.35;;
1400;SDS011;46518;48.842;8.926;2023-03-03T07:30:49;45.33;;;28.70;;
1400;SDS011;46518;48.842;8.926;2023-03-03T07:33:18;53.20;;;29.80;;
1400;SDS011;46518;48.842;8.926;2023-03-03T07:35:53;43.33;;;29.02;;
1400;SDS011;46518;48.842;8.926;2023-03-03T07:38:23;47.83;;;29.77;;
1400;SDS011;46518;48.842;8.926;2023-03-03T07:40:59;52.55;;;30.48;;
1400;SDS011;46518;48.842;8.926;2023-03-03T07:43:30;48.17;;;28.10;;
1400;SDS011;46518;48.842;8.926;2023-03-03T07:46:04;47.58;;;28.67;;
1400;SDS011;46518;48.842;8.926;2023-03-03T07:48:48;46.63;;;29.52;;
1400;SDS011;46518;48.842;8.926;2023-03-03T07:51:18;44.72;;;26.63;;
1400;SDS011;46518;48.842;8.926;2023-03-03T07:53:51;46.80;;;26.63;;
1400;SDS011;46518;48.842;8.926;2023-03-03T07:56:24;41.90;;;23.40;;
1400;SDS011;46518;48.842;8.926;2023-03-03T07:58:56;29.73;;;20.88;;
1400;SDS011;46518;48.842;8.926;2023-03-03T08:01:31;39.28;;;21.73;;
1400;SDS011;46518;48.842;8.926;2023-03-03T08:04:09;35.33;;;20.58;;
1400;SDS011;46518;48.842;8.926;2023-03-03T08:06:44;38.03;;;21.02;;
1400;SDS011;46518;48.842;8.926;2023-03-03T08:09:28;31.48;;;21.88;;
1400;SDS011;46518;48.842;8.926;2023-03-03T08:12:30;28.85;;;20.58;;
1400;SDS011;46518;48.842;8.926;2023-03-03T08:15:18;34.92;;;22.23;;
1400;SDS011;46518;48.842;8.926;2023-03-03T08:17:48;35.95;;;21.50;;
1400;SDS011;46518;48.842;8.926;2023-03-03T08:23:12;34.05;;;22.10;;
1400;SDS011;46518;48.842;8.926;2023-03-03T08:25:41;36.75;;;23.20;;
1400;SDS011;46518;48.842;8.926;2023-03-03T08:28:11;39.97;;;24.02;;
1400;SDS011;46518;48.842;8.926;2023-03-03T08:30:40;38.50;;;25.63;;
1400;SDS011;46518;48.842;8.926;2023-03-03T08:33:09;39.53;;;22.20;;
1400;SDS011;46518;48.842;8.926;2023-03-03T08:35:37;41.85;;;24.10;;
1400;SDS011;46518;48.842;8.926;2023-03-03T08:38:06;33.92;;;21.48;;
1400;SDS011;46518;48.842;8.926;2023-03-03T08:40:35;35.50;;;21.45;;
1400;SDS011;46518;48.842;8.926;2023-03-03T08:43:04;34.33;;;21.67;;
1400;SDS011;46518;48.842;8.926;2023-03-03T08:45:34;33.72;;;21.45;;
1400;SDS011;46518;48.842;8.926;2023-03-03T08:48:03;36.42;;;21.38;;
1400;SDS011;46518;48.842;8.926;2023-03-03T08:50:31;33.60;;;22.08;;
1400;SDS011;46518;48.842;8.926;2023-03-03T08:53:00;33.25;;;21.95;;
1400;SDS011;46518;48.842;8.926;2023-03-03T08:55:28;35.00;;;23.02;;
1400;SDS011;46518;48.842;8.926;2023-03-03T08:57:56;42.05;;;25.27;;
1400;SDS011;46518;48.842;8.926;2023-03-03T09:00:25;36.17;;;22.48;;
1400;SDS011;46518;48.842;8.926;2023-03-03T09:02:54;31.20;;;22.33;;
1400;SDS011;46518;48.842;8.926;2023-03-03T09:05:23;46.40;;;25.70;;
1400;SDS011;46518;48.842;8.926;2023-03-03T09:07:52;41.47;;;26.08;;
1400;SDS011;46518;48.842;8.926;2023-03-03T09:10:22;36.70;;;23.08;;
1400;SDS011;46518;48.842;8.926;2023-03-03T09:12:53;36.13;;;23.52;;
1400;SDS011;46518;48.842;8.926;2023-03-03T09:15:25;44.17;;;24.25;;
1400;SDS011;46518;48.842;8.926;2023-03-03T09:17:58;39.22;;;24.50;;
1400;SDS011;46518;48.842;8.926;2023-03-03T09:20:30;33.85;;;22.13;;
1400;SDS011;46518;48.842;8.926;2023-03-03T09:23:15;37.50;;;23.20;;
1400;SDS011;46518;48.842;8.926;2023-03-03T09:25:52;35.58;;;23.13;;
1400;SDS011;46518;48.842;8.926;2023-03-03T09:28:22;47.00;;;23.65;;
1400;SDS011;46518;48.842;8.926;2023-03-03T09:30:52;37.90;;;22.60;;
1400;SDS011;46518;48.842;8.926;2023-03-03T09:33:24;36.25;;;23.20;;
1400;SDS011;46518;48.842;8.926;2023-03-03T09:35:57;34.60;;;23.20;;
1400;SDS011;46518;48.842;8.926;2023-03-03T09:38:31;33.15;;;23.52;;
1400;SDS011;46518;48.842;8.926;2023-03-03T09:41:13;35.90;;;23.75;;
1400;SDS011;46518;48.842;8.926;2023-03-03T09:44:07;37.97;;;25.25;;
1400;SDS011;46518;48.842;8.926;2023-03-03T09:46:47;36.83;;;23.52;;
1400;SDS011;46518;48.842;8.926;2023-03-03T09:49:30;33.80;;;22.52;;
1400;SDS011;46518;48.842;8.926;2023-03-03T09:52:07;37.17;;;24.55;;
1400;SDS011;46518;48.842;8.926;2023-03-03T09:54:51;33.13;;;23.05;;
1400;SDS011;46518;48.842;8.926;2023-03-03T09:57:27;32.70;;;22.00;;
1400;SDS011;46518;48.842;8.926;2023-03-03T10:00:14;36.35;;;22.77;;
1400;SDS011;46518;48.842;8.926;2023-03-03T10:02:52;33.45;;;22.77;;
1400;SDS011;46518;48.842;8.926;2023-03-03T10:05:37;29.95;;;21.58;;
1400;SDS011;46518;48.842;8.926;2023-03-03T10:08:22;32.03;;;22.90;;
1400;SDS011;46518;48.842;8.926;2023-03-03T10:11:07;32.20;;;22.08;;
1400;SDS011;46518;48.842;8.926;2023-03-03T10:13:48;30.83;;;22.88;;
1400;SDS011;46518;48.842;8.926;2023-03-03T10:19:35;35.50;;;23.90;;
1400;SDS011;46518;48.842;8.926;2023-03-03T10:22:11;38.80;;;24.83;;
1400;SDS011;46518;48.842;8.926;2023-03-03T10:24:49;32.40;;;22.70;;
1400;SDS011;46518;48.842;8.926;2023-03-03T10:27:35;33.97;;;22.45;;
1400;SDS011;46518;48.842;8.926;2023-03-03T10:30:17;32.63;;;23.65;;
1400;SDS011;46518;48.842;8.926;2023-03-03T10:33:08;33.28;;;22.10;;
1400;SDS011;46518;48.842;8.926;2023-03-03T10:35:59;36.15;;;23.33;;
1400;SDS011;46518;48.842;8.926;2023-03-03T10:38:56;32.53;;;20.45;;
1400;SDS011;46518;48.842;8.926;2023-03-03T10:41:37;30.35;;;22.15;;
1400;SDS011;46518;48.842;8.926;2023-03-03T10:44:28;30.92;;;20.23;;
1400;SDS011;46518;48.842;8.926;2023-03-03T10:50:03;37.28;;;24.52;;
1400;SDS011;46518;48.842;8.926;2023-03-03T10:52:39;29.27;;;21.20;;
1400;SDS011;46518;48.842;8.926;2023-03-03T11:01:03;35.65;;;23.95;;
1400;SDS011;46518;48.842;8.926;2023-03-03T11:06:52;36.85;;;21.58;;
1400;SDS011;46518;48.842;8.926;2023-03-03T11:09:33;37.38;;;23.80;;
1400;SDS011;46518;48.842;8.926;2023-03-03T11:12:14;31.67;;;23.00;;
1400;SDS011;46518;48.842;8.926;2023-03-03T11:14:53;29.30;;;21.73;;
1400;SDS011;46518;48.842;8.926;2023-03-03T11:17:37;29.05;;;20.92;;
1400;SDS011;46518;48.842;8.926;2023-03-03T11:20:24;33.20;;;21.80;;
1400;SDS011;46518;48.842;8.926;2023-03-03T11:23:05;30.60;;;20.67;;
1400;SDS011;46518;48.842;8.926;2023-03-03T11:29:30;33.58;;;21.58;;
1400;SDS011;46518;48.842;8.926;2023-03-03T11:32:15;33.40;;;21.98;;
1400;SDS011;46518;48.842;8.926;2023-03-03T11:34:51;33.20;;;22.00;;
1400;SDS011;46518;48.842;8.926;2023-03-03T11:37:26;35.85;;;22.10;;
1400;SDS011;46518;48.842;8.926;2023-03-03T11:40:03;34.35;;;23.73;;
1400;SDS011;46518;48.842;8.926;2023-03-03T11:42:42;35.33;;;21.90;;
1400;SDS011;46518;48.842;8.926;2023-03-03T11:45:21;32.10;;;22.30;;
1400;SDS011;46518;48.842;8.926;2023-03-03T11:47:57;28.92;;;21.48;;
1400;SDS011;46518;48.842;8.926;2023-03-03T11:50:34;36.20;;;22.55;;
1400;SDS011;46518;48.842;8.926;2023-03-03T11:53:09;29.27;;;22.38;;
1400;SDS011;46518;48.842;8.926;2023-03-03T11:55:51;33.22;;;22.85;;
1400;SDS011;46518;48.842;8.926;2023-03-03T11:58:27;32.85;;;21.90;;
1400;SDS011;46518;48.842;8.926;2023-03-03T12:01:00;26.50;;;20.77;;
1400;SDS011;46518;48.842;8.926;2023-03-03T12:03:38;35.45;;;23.80;;
1400;SDS011;46518;48.842;8.926;2023-03-03T12:06:12;40.78;;;22.27;;
1400;SDS011;46518;48.842;8.926;2023-03-03T12:09:00;33.80;;;22.98;;
1400;SDS011;46518;48.842;8.926;2023-03-03T12:11:36;31.92;;;22.27;;
1400;SDS011;46518;48.842;8.926;2023-03-03T12:14:14;40.35;;;24.23;;
1400;SDS011;46518;48.842;8.926;2023-03-03T12:16:55;34.95;;;22.40;;
1400;SDS011;46518;48.842;8.926;2023-03-03T12:19:29;31.42;;;22.48;;
1400;SDS011;46518;48.842;8.926;2023-03-03T12:22:11;31.58;;;22.95;;
1400;SDS011;46518;48.842;8.926;2023-03-03T12:24:52;30.45;;;21.58;;
1400;SDS011;46518;48.842;8.926;2023-03-03T12:27:33;28.63;;;22.60;;
1400;SDS011;46518;48.842;8.926;2023-03-03T12:30:10;33.58;;;22.55;;
1400;SDS011;46518;48.842;8.926;2023-03-03T12:32:53;35.72;;;24.08;;
1400;SDS011;46518;48.842;8.926;2023-03-03T12:35:38;31.45;;;22.08;;
1400;SDS011;46518;48.842;8.926;2023-03-03T12:38:17;34.30;;;20.55;;
1400;SDS011;46518;48.842;8.926;2023-03-03T12:40:54;33.63;;;22.88;;
1400;SDS011;46518;48.842;8.926;2023-03-03T12:43:33;30.90;;;20.23;;
1400;SDS011;46518;48.842;8.926;2023-03-03T12:46:13;31.25;;;22.30;;
1400;SDS011;46518;48.842;8.926;2023-03-03T12:48:55;31.52;;;21.05;;
1400;SDS011;46518;48.842;8.926;2023-03-03T12:51:27;31.65;;;23.25;;
1400;SDS011;46518;48.842;8.926;2023-03-03T12:54:10;30.92;;;21.15;;
1400;SDS011;46518;48.842;8.926;2023-03-03T12:56:47;27.70;;;20.30;;
1400;SDS011;46518;48.842;8.926;2023-03-03T12:59:23;32.17;;;22.33;;
1400;SDS011;46518;48.842;8.926;2023-03-03T13:02:02;37.22;;;22.73;;
1400;SDS011;46518;48.842;8.926;2023-03-03T13:04:49;35.20;;;21.83;;
1400;SDS011;46518;48.842;8.926;2023-03-03T13:07:24;34.17;;;23.65;;
1400;SDS011;46518;48.842;8.926;2023-03-03T13:10:02;28.92;;;22.92;;
1400;SDS011;46518;48.842;8.926;2023-03-03T13:12:41;31.92;;;22.45;;
1400;SDS011;46518;48.842;8.926;2023-03-03T13:15:16;31.85;;;22.05;;
1400;SDS011;46518;48.842;8.926;2023-03-03T13:17:59;33.38;;;20.50;;
1400;SDS011;46518;48.842;8.926;2023-03-03T13:20:49;33.13;;;23.10;;
1400;SDS011;46518;48.842;8.926;2023-03-03T13:23:28;30.42;;;20.70;;
1400;SDS011;46518;48.842;8.926;2023-03-03T13:26:05;34.03;;;22.10;;
1400;SDS011;46518;48.842;8.926;2023-03-03T13:28:40;29.73;;;21.48;;
1400;SDS011;46518;48.842;8.926;2023-03-03T13:31:19;29.70;;;22.73;;
1400;SDS011;46518;48.842;8.926;2023-03-03T13:33:50;34.15;;;21.65;;
1400;SDS011;46518;48.842;8.926;2023-03-03T13:36:22;30.30;;;22.75;;
1400;SDS011;46518;48.842;8.926;2023-03-03T13:38:58;31.02;;;21.00;;
1400;SDS011;46518;48.842;8.926;2023-03-03T13:41:32;27.25;;;21.40;;
1400;SDS011;46518;48.842;8.926;2023-03-03T13:44:08;32.72;;;22.55;;
1400;SDS011;46518;48.842;8.926;2023-03-03T13:46:41;32.88;;;21.60;;
1400;SDS011;46518;48.842;8.926;2023-03-03T13:49:22;32.20;;;22.45;;
1400;SDS011;46518;48.842;8.926;2023-03-03T13:52:03;30.00;;;22.25;;
1400;SDS011;46518;48.842;8.926;2023-03-03T13:54:50;32.72;;;22.33;;
1400;SDS011;46518;48.842;8.926;2023-03-03T13:57:34;27.50;;;22.60;;
1400;SDS011;46518;48.842;8.926;2023-03-03T14:00:26;37.92;;;23.63;;
1400;SDS011;46518;48.842;8.926;2023-03-03T14:05:59;30.98;;;23.05;;
1400;SDS011;46518;48.842;8.926;2023-03-03T14:08:36;33.67;;;24.08;;
1400;SDS011;46518;48.842;8.926;2023-03-03T14:11:16;30.77;;;21.42;;
1400;SDS011;46518;48.842;8.926;2023-03-03T14:13:48;41.60;;;24.00;;
1400;SDS011;46518;48.842;8.926;2023-03-03T14:16:32;31.48;;;22.52;;
1400;SDS011;46518;48.842;8.926;2023-03-03T14:19:13;36.13;;;23.58;;
1400;SDS011;46518;48.842;8.926;2023-03-03T14:21:46;31.65;;;22.50;;
1400;SDS011;46518;48.842;8.926;2023-03-03T14:24:22;33.20;;;21.13;;
1400;SDS011;46518;48.842;8.926;2023-03-03T14:26:53;31.30;;;24.02;;
1400;SDS011;46518;48.842;8.926;2023-03-03T14:29:29;27.63;;;21.60;;
1400;SDS011;46518;48.842;8.926;2023-03-03T14:31:59;34.92;;;23.58;;
1400;SDS011;46518;48.842;8.926;2023-03-03T14:34:35;32.38;;;25.30;;
1400;SDS011;46518;48.842;8.926;2023-03-03T14:37:18;35.35;;;24.13;;
1400;SDS011;46518;48.842;8.926;2023-03-03T14:39:58;33.53;;;23.50;;
1400;SDS011;46518;48.842;8.926;2023-03-03T14:42:30;36.20;;;22.92;;
1400;SDS011;46518;48.842;8.926;2023-03-03T14:45:01;32.35;;;22.92;;
1400;SDS011;46518;48.842;8.926;2023-03-03T14:47:55;34.05;;;22.23;;
1400;SDS011;46518;48.842;8.926;2023-03-03T14:50:28;32.25;;;21.98;;
1400;SDS011;46518;48.842;8.926;2023-03-03T14:53:19;32.80;;;20.85;;
1400;SDS011;46518;48.842;8.926;2023-03-03T14:55:51;36.75;;;24.77;;
1400;SDS011;46518;48.842;8.926;2023-03-03T15:01:06;29.23;;;23.70;;
1400;SDS011;46518;48.842;8.926;2023-03-03T15:03:43;34.75;;;22.55;;
1400;SDS011;46518;48.842;8.926;2023-03-03T15:06:26;35.25;;;24.00;;
1400;SDS011;46518;48.842;8.926;2023-03-03T15:08:59;34.60;;;22.25;;
1400;SDS011;46518;48.842;8.926;2023-03-03T15:11:51;37.00;;;23.33;;
1400;SDS011;46518;48.842;8.926;2023-03-03T15:14:20;33.85;;;24.48;;
1400;SDS011;46518;48.842;8.926;2023-03-03T15:16:55;37.47;;;25.98;;
1400;SDS011;46518;48.842;8.926;2023-03-03T15:19:31;35.28;;;24.05;;
1400;SDS011;46518;48.842;8.926;2023-03-03T15:22:10;38.30;;;24.13;;
1400;SDS011;46518;48.842;8.926;2023-03-03T15:24:48;34.88;;;25.92;;
1400;SDS011;46518;48.842;8.926;2023-03-03T15:27:27;34.17;;;23.83;;
1400;SDS011;46518;48.842;8.926;2023-03-03T15:30:01;33.20;;;23.38;;
1400;SDS011;46518;48.842;8.926;2023-03-03T15:32:39;36.95;;;24.92;;
1400;SDS011;46518;48.842;8.926;2023-03-03T15:35:18;33.08;;;22.67;;
1400;SDS011;46518;48.842;8.926;2023-03-03T15:37:58;31.90;;;22.15;;
1400;SDS011;46518;48.842;8.926;2023-03-03T15:40:32;38.15;;;24.25;;
1400;SDS011;46518;48.842;8.926;2023-03-03T15:43:13;32.15;;;22.38;;